createdAt,value
2023-03-06T00:00:30.032Z,97591.00
2023-03-06T00:02:57.673Z,97584.97
2023-03-06T00:05:24.488Z,97575.50
2023-03-06T00:07:51.142Z,97568.59
2023-03-06T00:10:26.295Z,97564.28
2023-03-06T00:12:57.640Z,97563.41
2023-03-06T00:15:25.520Z,97572.03
2023-03-06T00:17:52.762Z,97572.91
2023-03-06T00:20:20.176Z,97565.16
2023-03-06T00:22:47.025Z,97572.91
2023-03-06T00:25:16.917Z,97563.41
2023-03-06T00:27:44.333Z,97566.88
2023-03-06T00:30:14.155Z,97568.59
2023-03-06T00:32:41.085Z,97564.28
2023-03-06T00:35:08.214Z,97566.88
2023-03-06T00:37:34.811Z,97560.00
2023-03-06T00:40:01.703Z,97560.84
2023-03-06T00:42:28.384Z,97553.09
2023-03-06T00:44:54.980Z,97553.06
2023-03-06T00:47:21.753Z,97544.44
2023-03-06T00:49:48.325Z,97547.94
2023-03-06T00:52:14.925Z,97539.28
2023-03-06T00:54:41.570Z,97540.16
2023-03-06T00:57:08.614Z,97535.84
2023-03-06T00:59:35.538Z,97533.25
2023-03-06T01:02:02.756Z,97531.53
2023-03-06T01:04:29.451Z,97540.16
2023-03-06T01:06:56.047Z,97528.97
2023-03-06T01:09:22.819Z,97528.94
2023-03-06T01:11:49.419Z,97520.34
2023-03-06T01:14:16.207Z,97519.47
2023-03-06T01:16:42.852Z,97513.44
2023-03-06T01:19:09.761Z,97510.00
2023-03-06T01:21:36.399Z,97506.56
2023-03-06T01:24:03.446Z,97508.28
2023-03-06T01:26:30.203Z,97504.84
2023-03-06T01:28:57.774Z,97506.53
2023-03-06T01:31:25.258Z,97498.78
2023-03-06T01:33:52.535Z,97501.38
2023-03-06T01:36:19.282Z,97499.63
2023-03-06T01:38:45.845Z,97490.16
2023-03-06T01:41:15.794Z,97488.44
2023-03-06T01:43:47.636Z,97480.66
2023-03-06T01:46:16.918Z,97478.09
2023-03-06T01:48:45.222Z,97478.09
2023-03-06T01:51:12.523Z,97470.31
2023-03-06T01:53:41.513Z,97473.75
2023-03-06T01:56:08.613Z,97468.59
2023-03-06T01:58:35.411Z,97470.34
2023-03-06T02:01:02.038Z,97463.47
2023-03-06T02:03:30.035Z,97457.44
2023-03-06T02:05:57.051Z,97459.16
2023-03-06T02:08:24.184Z,97454.00
2023-03-06T02:11:09.104Z,97442.78
2023-03-06T02:13:36.995Z,97451.41
2023-03-06T02:16:03.829Z,97448.84
2023-03-06T02:18:30.611Z,97438.47
2023-03-06T02:21:00.808Z,97447.13
2023-03-06T02:23:31.819Z,97435.91
2023-03-06T02:25:59.887Z,97431.59
2023-03-06T02:28:26.901Z,97427.31
2023-03-06T02:30:55.369Z,97432.47
2023-03-06T02:33:26.338Z,97430.75
2023-03-06T02:36:05.812Z,97425.56
2023-03-06T02:38:50.073Z,97418.69
2023-03-06T02:41:16.876Z,97413.53
2023-03-06T02:43:47.530Z,97420.41
2023-03-06T02:46:14.219Z,97416.94
2023-03-06T02:48:41.104Z,97422.09
2023-03-06T02:51:07.688Z,97417.81
2023-03-06T02:53:34.367Z,97410.06
2023-03-06T02:56:02.045Z,97405.75
2023-03-06T02:58:28.807Z,97403.16
2023-03-06T03:00:55.457Z,97408.31
2023-03-06T03:03:22.064Z,97403.16
2023-03-06T03:05:48.684Z,97393.69
2023-03-06T03:08:15.352Z,97398.88
2023-03-06T03:10:41.998Z,97391.94
2023-03-06T03:13:08.540Z,97395.41
2023-03-06T03:15:35.249Z,97387.66
2023-03-06T03:18:02.012Z,97384.22
2023-03-06T03:20:28.642Z,97380.81
2023-03-06T03:22:55.932Z,97389.41
2023-03-06T03:25:24.847Z,97383.38
2023-03-06T03:27:52.201Z,97369.59
2023-03-06T03:30:18.868Z,97371.31
2023-03-06T03:32:45.854Z,97371.31
2023-03-06T03:35:13.142Z,97368.69
2023-03-06T03:37:39.694Z,97384.19
2023-03-06T03:40:07.442Z,97373.00
2023-03-06T03:42:34.322Z,97373.00
2023-03-06T03:45:01.007Z,97365.28
2023-03-06T03:47:27.474Z,97363.53
2023-03-06T03:49:54.081Z,97368.72
2023-03-06T03:52:20.619Z,97365.25
2023-03-06T03:54:47.241Z,97367.84
2023-03-06T03:57:13.934Z,97366.13
2023-03-06T03:59:40.670Z,97361.84
2023-03-06T04:02:07.531Z,97361.84
2023-03-06T04:04:34.174Z,97360.13
2023-03-06T04:07:00.938Z,97352.38
2023-03-06T04:09:27.721Z,97357.56
2023-03-06T04:11:54.334Z,97353.25
2023-03-06T04:14:20.991Z,97348.06
2023-03-06T04:16:47.823Z,97349.81
2023-03-06T04:19:14.472Z,97345.50
2023-03-06T04:21:41.117Z,97330.84
2023-03-06T04:24:08.162Z,97328.28
2023-03-06T04:26:36.100Z,97324.00
2023-03-06T04:29:02.811Z,97323.97
2023-03-06T04:31:29.513Z,97323.09
2023-03-06T04:33:56.277Z,97309.31
2023-03-06T04:36:45.248Z,97311.88
2023-03-06T04:39:13.259Z,97315.31
2023-03-06T04:41:40.436Z,97305.81
2023-03-06T04:44:08.031Z,97298.09
2023-03-06T04:46:35.695Z,97304.09
2023-03-06T04:49:02.568Z,97293.72
2023-03-06T04:51:29.692Z,97301.47
2023-03-06T04:53:56.540Z,97294.53
2023-03-06T04:56:23.424Z,97292.84
2023-03-06T04:58:50.331Z,97285.94
2023-03-06T05:01:17.086Z,97280.66
2023-03-06T05:03:43.777Z,97277.25
2023-03-06T05:06:10.518Z,97271.16
2023-03-06T05:08:37.308Z,97274.53
2023-03-06T05:11:04.365Z,97265.97
2023-03-06T05:13:31.005Z,97267.66
2023-03-06T05:16:05.589Z,97269.34
2023-03-06T05:18:33.282Z,97275.41
2023-03-06T05:21:00.803Z,97264.25
2023-03-06T05:23:32.754Z,97270.25
2023-03-06T05:25:59.555Z,97271.97
2023-03-06T05:28:27.080Z,97268.50
2023-03-06T05:30:54.031Z,97273.72
2023-03-06T05:33:20.486Z,97264.22
2023-03-06T05:35:48.304Z,97272.78
2023-03-06T05:38:16.058Z,97270.16
2023-03-06T05:40:44.042Z,97260.56
2023-03-06T05:43:12.139Z,97260.59
2023-03-06T05:45:40.138Z,97256.28
2023-03-06T05:48:08.095Z,97259.78
2023-03-06T05:50:34.833Z,97256.38
2023-03-06T05:53:01.590Z,97258.03
2023-03-06T05:55:28.311Z,97252.03
2023-03-06T05:57:54.905Z,97258.09
2023-03-06T06:00:22.467Z,97258.88
2023-03-06T06:02:49.015Z,97258.06
2023-03-06T06:05:15.696Z,97252.84
2023-03-06T06:07:42.769Z,97258.03
2023-03-06T06:10:11.544Z,97260.59
2023-03-06T06:12:38.256Z,97253.72
2023-03-06T06:15:06.738Z,97254.53
2023-03-06T06:17:33.620Z,97257.03
2023-03-06T06:20:00.445Z,97240.69
2023-03-06T06:22:27.448Z,97250.16
2023-03-06T06:24:54.234Z,97246.72
2023-03-06T06:27:21.026Z,97250.13
2023-03-06T06:29:50.779Z,97243.25
2023-03-06T06:32:17.460Z,97249.22
2023-03-06T06:34:44.027Z,97238.03
2023-03-06T06:37:11.154Z,97243.91
2023-03-06T06:39:37.854Z,97249.91
2023-03-06T06:42:26.576Z,97243.91
2023-03-06T06:44:52.454Z,97249.09
2023-03-06T06:47:24.534Z,97246.50
2023-03-06T06:49:53.812Z,97249.06
2023-03-06T06:52:20.628Z,97249.03
2023-03-06T06:54:47.381Z,97247.31
2023-03-06T06:57:14.714Z,97252.44
2023-03-06T06:59:41.591Z,97239.38
2023-03-06T07:02:10.384Z,97249.06
2023-03-06T07:04:36.967Z,97247.22
2023-03-06T07:07:03.831Z,97235.06
2023-03-06T07:09:30.992Z,97238.50
2023-03-06T07:11:58.345Z,97242.78
2023-03-06T07:14:25.453Z,97241.06
2023-03-06T07:16:51.927Z,97246.91
2023-03-06T07:19:18.610Z,97246.91
2023-03-06T07:21:45.391Z,97252.00
2023-03-06T07:24:12.076Z,97246.84
2023-03-06T07:26:38.680Z,97245.00
2023-03-06T07:29:05.631Z,97248.50
2023-03-06T07:31:32.631Z,97246.78
2023-03-06T07:33:59.307Z,97238.16
2023-03-06T07:36:26.171Z,97239.75
2023-03-06T07:38:52.957Z,97238.84
2023-03-06T07:41:22.364Z,97248.44
2023-03-06T07:43:50.005Z,97242.41
2023-03-06T07:46:17.842Z,97247.53
2023-03-06T07:48:44.848Z,97249.41
2023-03-06T07:51:17.708Z,97251.25
2023-03-06T07:53:45.510Z,97249.41
2023-03-06T07:56:12.966Z,97247.81
2023-03-06T07:58:42.872Z,97246.06
2023-03-06T08:01:13.593Z,97246.13
2023-03-06T08:03:40.522Z,97245.34
2023-03-06T08:06:14.525Z,97255.72
2023-03-06T08:08:43.404Z,97249.69
2023-03-06T08:11:12.011Z,97262.63
2023-03-06T08:13:39.441Z,97252.25
2023-03-06T08:16:06.698Z,97253.13
2023-03-06T08:18:34.096Z,97250.63
2023-03-06T08:21:04.415Z,97253.19
2023-03-06T08:23:31.878Z,97254.06
2023-03-06T08:26:00.205Z,97255.00
2023-03-06T08:28:27.303Z,97250.63
2023-03-06T08:30:54.456Z,97253.22
2023-03-06T08:33:21.283Z,97248.00
2023-03-06T08:35:48.066Z,97254.94
2023-03-06T08:38:15.337Z,97252.25
2023-03-06T08:40:41.988Z,97247.88
2023-03-06T08:43:14.064Z,97240.84
2023-03-06T08:45:40.994Z,97243.41
2023-03-06T08:48:08.046Z,97245.13
2023-03-06T08:50:34.927Z,97242.53
2023-03-06T08:53:01.764Z,97251.94
2023-03-06T08:55:28.447Z,97253.63
2023-03-06T08:57:55.340Z,97245.00
2023-03-06T09:00:22.247Z,97250.03
2023-03-06T09:02:48.984Z,97253.41
2023-03-06T09:05:15.832Z,97250.63
2023-03-06T09:07:43.827Z,97251.38
2023-03-06T09:10:19.472Z,97258.16
2023-03-06T09:12:52.005Z,97248.63
2023-03-06T09:15:21.483Z,97258.13
2023-03-06T09:17:48.312Z,97260.63
2023-03-06T09:20:15.516Z,97259.91
2023-03-06T09:22:42.534Z,97255.63
2023-03-06T09:25:11.273Z,97255.59
2023-03-06T09:27:37.962Z,97259.91
2023-03-06T09:30:05.309Z,97253.09
2023-03-06T09:32:32.018Z,97266.72
2023-03-06T09:34:58.931Z,97257.88
2023-03-06T09:37:25.622Z,97258.66
2023-03-06T09:39:52.138Z,97253.38
2023-03-06T09:42:23.909Z,97259.47
2023-03-06T09:44:55.906Z,97266.34
2023-03-06T09:47:28.790Z,97259.31
2023-03-06T09:50:19.347Z,97256.53
2023-03-06T09:53:19.687Z,97260.88
2023-03-06T09:55:51.797Z,97258.22
2023-03-06T09:58:24.674Z,97256.31
2023-03-06T10:00:57.358Z,97248.56
2023-03-06T10:03:38.223Z,97259.31
2023-03-06T10:06:15.514Z,97259.88
2023-03-06T10:08:51.516Z,97260.31
2023-03-06T10:11:58.509Z,97249.59
2023-03-06T10:14:44.004Z,97241.84
2023-03-06T10:17:19.175Z,97248.81
2023-03-06T10:19:47.823Z,97248.72
2023-03-06T10:22:37.137Z,97246.63
2023-03-06T10:25:16.951Z,97246.47
2023-03-06T10:28:12.587Z,97249.31
2023-03-06T10:30:49.865Z,97250.03
2023-03-06T10:33:19.834Z,97245.03
2023-03-06T10:35:48.611Z,97253.75
2023-03-06T10:38:25.990Z,97256.56
2023-03-06T10:41:07.405Z,97250.38
2023-03-06T10:43:36.587Z,97248.00
2023-03-06T10:46:05.332Z,97249.59
2023-03-06T10:48:41.011Z,97255.91
2023-03-06T10:51:20.719Z,97254.88
2023-03-06T10:54:02.944Z,97251.59
2023-03-06T10:56:34.113Z,97244.81
2023-03-06T10:59:15.752Z,97258.03
2023-03-06T11:01:45.125Z,97251.63
2023-03-06T11:04:34.059Z,97262.78
2023-03-06T11:07:20.907Z,97252.03
2023-03-06T11:09:56.679Z,97249.31
2023-03-06T11:12:32.361Z,97244.19
2023-03-06T11:15:14.380Z,97236.78
2023-03-06T11:17:55.442Z,97243.03
2023-03-06T11:20:27.183Z,97239.75
2023-03-06T11:23:07.551Z,97242.72
2023-03-06T11:25:50.926Z,97233.34
2023-03-06T11:28:57.635Z,97225.81
2023-03-06T11:31:33.012Z,97232.63
2023-03-06T11:33:59.510Z,97219.22
2023-03-06T11:36:50.164Z,97220.03
2023-03-06T11:39:20.845Z,97210.63
2023-03-06T11:42:11.228Z,97208.72
2023-03-06T11:45:03.786Z,97204.69
2023-03-06T11:47:53.585Z,97200.81
2023-03-06T11:50:27.658Z,97189.28
2023-03-06T11:53:01.784Z,97182.53
2023-03-06T11:56:07.485Z,97188.44
2023-03-06T11:59:18.718Z,97199.09
2023-03-06T12:02:13.220Z,97198.00
2023-03-06T12:05:04.018Z,97206.19
2023-03-06T12:07:34.797Z,97197.31
2023-03-06T12:10:27.821Z,97193.19
2023-03-06T12:13:11.061Z,97184.38
2023-03-06T12:15:51.998Z,97182.63
2023-03-06T12:18:40.679Z,97195.56
2023-03-06T12:21:23.057Z,97181.91
2023-03-06T12:24:02.533Z,97191.34
2023-03-06T12:26:54.527Z,97195.75
2023-03-06T12:29:41.547Z,97182.88
2023-03-06T12:32:19.147Z,97183.50
2023-03-06T12:35:06.482Z,97174.41
2023-03-06T12:37:42.699Z,97177.19
2023-03-06T12:40:27.643Z,97170.66
2023-03-06T12:43:25.260Z,97173.06
2023-03-06T12:46:00.852Z,97187.09
2023-03-06T12:48:33.830Z,97177.75
2023-03-06T12:51:01.275Z,97188.38
2023-03-06T12:53:30.849Z,97187.03
2023-03-06T12:56:02.262Z,97191.81
2023-03-06T12:58:29.179Z,97200.94
2023-03-06T13:01:03.639Z,97201.88
2023-03-06T13:03:52.552Z,97202.94
2023-03-06T13:06:55.129Z,97196.03
2023-03-06T13:09:33.581Z,97192.56
2023-03-06T13:12:33.753Z,97193.31
2023-03-06T13:15:19.480Z,97183.66
2023-03-06T13:17:46.393Z,97193.25
2023-03-06T13:20:15.766Z,97199.25
2023-03-06T13:22:44.928Z,97198.38
2023-03-06T13:25:17.526Z,97196.03
2023-03-06T13:27:47.305Z,97190.91
2023-03-06T13:30:40.237Z,97190.00
2023-03-06T13:33:39.106Z,97182.97
2023-03-06T13:36:21.131Z,97181.97
2023-03-06T13:39:12.219Z,97189.59
2023-03-06T13:41:54.448Z,97186.09
2023-03-06T13:44:23.818Z,97185.09
2023-03-06T13:47:03.058Z,97185.09
2023-03-06T13:49:30.225Z,97178.19
2023-03-06T13:52:08.226Z,97176.25
2023-03-06T13:54:57.135Z,97165.75
2023-03-06T13:57:48.094Z,97180.78
2023-03-06T14:00:40.980Z,97170.78
2023-03-06T14:03:10.675Z,97165.34
2023-03-06T14:05:48.981Z,97176.25
2023-03-06T14:08:18.851Z,97169.31
2023-03-06T14:10:47.764Z,97171.28
2023-03-06T14:13:34.957Z,97172.28
2023-03-06T14:16:18.040Z,97169.84
2023-03-06T14:18:47.838Z,97157.94
2023-03-06T14:21:17.226Z,97163.06
2023-03-06T14:23:46.338Z,97161.34
2023-03-06T14:26:21.807Z,97156.97
2023-03-06T14:29:02.557Z,97157.13
2023-03-06T14:31:33.887Z,97162.31
2023-03-06T14:34:03.296Z,97160.25
2023-03-06T14:36:34.780Z,97151.50
2023-03-06T14:39:09.163Z,97155.06
2023-03-06T14:41:37.150Z,97149.72
2023-03-06T14:44:21.712Z,97155.97
2023-03-06T14:46:57.332Z,97153.41
2023-03-06T14:49:25.983Z,97144.81
2023-03-06T14:51:55.389Z,97156.84
2023-03-06T14:54:28.808Z,97157.75
2023-03-06T14:57:02.902Z,97155.34
2023-03-06T14:59:34.869Z,97163.22
2023-03-06T15:02:06.540Z,97155.50
2023-03-06T15:04:46.300Z,97161.59
2023-03-06T15:07:18.408Z,97164.56
2023-03-06T15:09:49.342Z,97166.50
2023-03-06T15:12:18.683Z,97168.44
2023-03-06T15:15:03.974Z,97167.56
2023-03-06T15:17:38.149Z,97166.22
2023-03-06T15:20:09.018Z,97165.25
2023-03-06T15:22:38.136Z,97162.81
2023-03-06T15:25:26.921Z,97165.31
2023-03-06T15:28:15.119Z,97160.91
2023-03-06T15:30:41.826Z,97155.63
2023-03-06T15:33:25.688Z,97155.69
2023-03-06T15:35:57.719Z,97154.00
2023-03-06T15:38:35.871Z,97154.69
2023-03-06T15:41:05.218Z,97146.78
2023-03-06T15:43:37.126Z,97156.63
2023-03-06T15:46:05.810Z,97147.84
2023-03-06T15:48:35.501Z,97154.75
2023-03-06T15:51:03.611Z,97157.34
2023-03-06T15:53:30.644Z,97159.19
2023-03-06T15:55:59.017Z,97152.06
2023-03-06T15:58:30.395Z,97160.91
2023-03-06T16:00:57.057Z,97153.00
2023-03-06T16:03:23.961Z,97153.91
2023-03-06T16:05:50.531Z,97148.84
2023-03-06T16:08:17.292Z,97152.44
2023-03-06T16:10:45.804Z,97150.66
2023-03-06T16:13:16.333Z,97153.28
2023-03-06T16:15:51.173Z,97145.47
2023-03-06T16:18:18.321Z,97146.41
2023-03-06T16:20:44.973Z,97149.13
2023-03-06T16:23:11.652Z,97143.88
2023-03-06T16:25:43.611Z,97142.94
2023-03-06T16:28:15.721Z,97156.00
2023-03-06T16:30:44.013Z,97152.59
2023-03-06T16:33:12.191Z,97154.50
2023-03-06T16:35:39.394Z,97156.16
2023-03-06T16:38:06.169Z,97151.84
2023-03-06T16:40:41.299Z,97149.41
2023-03-06T16:43:09.823Z,97152.72
2023-03-06T16:45:41.317Z,97148.44
2023-03-06T16:48:12.780Z,97152.75
2023-03-06T16:50:40.813Z,97155.38
2023-03-06T16:53:09.548Z,97155.59
2023-03-06T16:55:36.193Z,97156.50
2023-03-06T16:58:02.977Z,97162.38
2023-03-06T17:00:31.975Z,97159.91
2023-03-06T17:02:59.473Z,97166.78
2023-03-06T17:05:26.227Z,97165.16
2023-03-06T17:07:53.094Z,97162.69
2023-03-06T17:10:22.848Z,97173.00
2023-03-06T17:12:50.227Z,97167.81
2023-03-06T17:15:17.117Z,97169.56
2023-03-06T17:17:43.804Z,97173.09
2023-03-06T17:20:12.111Z,97179.00
2023-03-06T17:22:38.891Z,97188.66
2023-03-06T17:25:08.214Z,97199.22
2023-03-06T17:27:35.702Z,97202.69
2023-03-06T17:30:02.908Z,97210.59
2023-03-06T17:32:29.556Z,97205.47
2023-03-06T17:34:56.727Z,97205.56
2023-03-06T17:37:23.363Z,97205.56
2023-03-06T17:39:50.057Z,97206.31
2023-03-06T17:42:16.867Z,97204.72
2023-03-06T17:44:43.461Z,97209.00
2023-03-06T17:47:10.152Z,97210.81
2023-03-06T17:49:36.759Z,97209.09
2023-03-06T17:52:05.847Z,97205.66
2023-03-06T17:54:33.514Z,97203.13
2023-03-06T17:57:03.639Z,97202.34
2023-03-06T17:59:31.233Z,97204.97
2023-03-06T18:01:59.251Z,97205.00
2023-03-06T18:04:26.820Z,97198.13
2023-03-06T18:06:53.459Z,97201.59
2023-03-06T18:09:20.151Z,97201.66
2023-03-06T18:11:46.856Z,97194.75
2023-03-06T18:14:13.462Z,97203.34
2023-03-06T18:16:40.346Z,97202.47
2023-03-06T18:19:06.939Z,97203.31
2023-03-06T18:21:33.531Z,97201.53
2023-03-06T18:24:00.335Z,97200.63
2023-03-06T18:26:29.240Z,97195.50
2023-03-06T18:29:02.089Z,97199.75
2023-03-06T18:31:34.471Z,97191.91
2023-03-06T18:34:04.719Z,97193.53
2023-03-06T18:36:33.263Z,97192.66
2023-03-06T18:39:03.788Z,97187.41
2023-03-06T18:41:31.838Z,97186.50
2023-03-06T18:44:00.692Z,97193.28
2023-03-06T18:46:36.841Z,97188.97
2023-03-06T18:49:04.414Z,97182.91
2023-03-06T18:51:31.346Z,97187.31
2023-03-06T18:53:59.921Z,97183.94
2023-03-06T18:56:26.822Z,97184.63
2023-03-06T18:58:54.039Z,97187.22
2023-03-06T19:01:22.505Z,97183.75
2023-03-06T19:03:49.431Z,97192.44
2023-03-06T19:06:17.335Z,97183.03
2023-03-06T19:08:44.585Z,97187.34
2023-03-06T19:11:14.408Z,97188.38
2023-03-06T19:13:41.663Z,97185.78
2023-03-06T19:16:09.114Z,97187.53
2023-03-06T19:18:35.832Z,97190.31
2023-03-06T19:21:19.949Z,97184.22
2023-03-06T19:23:46.850Z,97178.25
2023-03-06T19:26:13.639Z,97179.97
2023-03-06T19:28:42.429Z,97178.25
2023-03-06T19:31:21.535Z,97176.56
2023-03-06T19:33:49.584Z,97175.75
2023-03-06T19:36:17.661Z,97179.19
2023-03-06T19:38:44.342Z,97174.88
2023-03-06T19:41:13.930Z,97176.63
2023-03-06T19:43:42.449Z,97171.50
2023-03-06T19:46:15.646Z,97168.91
2023-03-06T19:48:42.819Z,97171.47
2023-03-06T19:51:10.190Z,97169.72
2023-03-06T19:53:37.197Z,97167.19
2023-03-06T19:56:15.980Z,97165.25
2023-03-06T19:58:42.837Z,97173.97
2023-03-06T20:01:15.002Z,97165.41
2023-03-06T20:03:42.502Z,97160.28
2023-03-06T20:06:14.487Z,97158.66
2023-03-06T20:08:42.903Z,97161.25
2023-03-06T20:11:16.620Z,97160.38
2023-03-06T20:13:47.360Z,97153.44
2023-03-06T20:16:14.504Z,97151.66
2023-03-06T20:18:41.139Z,97155.97
2023-03-06T20:21:07.880Z,97155.97
2023-03-06T20:23:35.293Z,97146.50
2023-03-06T20:26:07.293Z,97142.19
2023-03-06T20:28:33.857Z,97147.34
2023-03-06T20:31:06.641Z,97137.06
2023-03-06T20:33:33.364Z,97140.53
2023-03-06T20:35:59.965Z,97138.72
2023-03-06T20:38:26.815Z,97135.34
2023-03-06T20:40:57.967Z,97129.31
2023-03-06T20:43:24.514Z,97136.28
2023-03-06T20:46:00.703Z,97129.22
2023-03-06T20:48:27.408Z,97131.09
2023-03-06T20:51:04.202Z,97123.41
2023-03-06T20:53:31.250Z,97119.06
2023-03-06T20:55:58.180Z,97123.34
2023-03-06T20:58:28.657Z,97124.25
2023-03-06T21:00:55.282Z,97116.50
2023-03-06T21:03:22.196Z,97118.25
2023-03-06T21:05:48.988Z,97119.03
2023-03-06T21:08:16.069Z,97110.47
2023-03-06T21:10:45.196Z,97113.88
2023-03-06T21:13:11.750Z,97112.13
2023-03-06T21:15:39.951Z,97106.94
2023-03-06T21:18:06.648Z,97103.44
2023-03-06T21:20:34.683Z,97092.97
2023-03-06T21:23:04.318Z,97093.78
2023-03-06T21:25:30.997Z,97088.56
2023-03-06T21:27:59.330Z,97088.56
2023-03-06T21:30:27.357Z,97091.19
2023-03-06T21:32:54.338Z,97086.00
2023-03-06T21:35:21.093Z,97083.44
2023-03-06T21:37:47.958Z,97081.66
2023-03-06T21:40:14.697Z,97083.31
2023-03-06T21:42:41.664Z,97070.44
2023-03-06T21:45:08.960Z,97076.47
2023-03-06T21:47:39.066Z,97060.78
2023-03-06T21:50:10.214Z,97068.59
2023-03-06T21:52:37.203Z,97060.84
2023-03-06T21:55:04.253Z,97060.00
2023-03-06T21:57:30.918Z,97057.41
2023-03-06T21:59:57.550Z,97058.28
2023-03-06T22:02:24.234Z,97056.50
2023-03-06T22:04:52.691Z,97039.25
2023-03-06T22:07:20.209Z,97047.03
2023-03-06T22:09:47.338Z,97041.78
2023-03-06T22:12:14.060Z,97041.84
2023-03-06T22:14:43.023Z,97039.16
2023-03-06T22:17:09.598Z,97034.09
2023-03-06T22:19:36.272Z,97033.22
2023-03-06T22:22:03.953Z,97033.22
2023-03-06T22:24:32.342Z,97033.22
2023-03-06T22:26:58.962Z,97031.53
2023-03-06T22:29:25.982Z,97033.25
2023-03-06T22:31:53.036Z,97026.44
2023-03-06T22:34:19.630Z,97023.94
2023-03-06T22:36:46.353Z,97023.06
2023-03-06T22:39:13.667Z,97026.47
2023-03-06T22:41:40.790Z,97023.94
2023-03-06T22:44:07.599Z,97022.06
2023-03-06T22:46:34.224Z,97020.28
2023-03-06T22:49:01.960Z,97016.88
2023-03-06T22:51:29.727Z,97012.47
2023-03-06T22:53:56.416Z,97009.00
2023-03-06T22:56:23.857Z,97000.28
2023-03-06T22:58:50.519Z,96992.53
2023-03-06T23:01:19.758Z,96998.44
2023-03-06T23:03:51.751Z,96997.81
2023-03-06T23:06:24.658Z,96988.25
2023-03-06T23:09:03.516Z,96982.13
2023-03-06T23:11:30.706Z,96993.31
2023-03-06T23:13:57.913Z,96981.38
2023-03-06T23:16:25.103Z,96989.31
2023-03-06T23:18:53.332Z,96982.28
2023-03-06T23:21:22.104Z,96971.00
2023-03-06T23:23:53.708Z,96979.69
2023-03-06T23:26:23.627Z,96977.19
2023-03-06T23:28:51.329Z,96974.66
2023-03-06T23:31:20.647Z,96975.59
2023-03-06T23:33:48.358Z,96975.69
2023-03-06T23:36:17.806Z,96968.03
2023-03-06T23:38:45.159Z,96973.22
2023-03-06T23:41:14.958Z,96973.13
2023-03-06T23:43:41.740Z,96970.50
2023-03-06T23:46:08.775Z,96956.72
2023-03-06T23:48:36.850Z,96968.91
2023-03-06T23:51:08.671Z,96966.25
2023-03-06T23:53:35.940Z,96964.59
2023-03-06T23:56:06.431Z,96961.19
2023-03-06T23:58:33.291Z,96952.53
